»·PEaware :: N6265T KMFR-KOTH

N6265T :: KMFR-KOTH

FLIGHT INFORMATION

Flight Status: Arrived
Operator: Privately registered:
United States
More flights under this callsign
Pilot: Sebastian M. (20156)
Aircraft: CESSNA 172 SKYHAWK
(C172)
More flights by this aircraft type
Origin: KMFR Rogue Valley Intl-Medford
United States
Destination: KOTH North Bend Mun
United States
More flights between these airports :: More routes between these airports
Route: EAGLE6 OED RBG OTH
File this flight plan on PilotEdge
Remarks:
Altitude:
(Current/Filed)
8,000ft
Speed:
(Current/Filed)
115kts
Departed: 29-Aug-18 06:36 PM
Arrived: 29-Aug-18 07:44 PM
Distance/Time
Traveled:
87nm/1:08
Distance/Time
To Go:
Arrived

Flight Plot

Page will automatically refresh every two minutes.

Flight plan parsing failed; only flown route is shown


Map Options




Map Legend


Flown Route
Filed Route
Departure Airport
Arrival Airport
Navaid (VOR, NDB)
Fix

Horizontal Profiles

Position Reports

Time Latitude Longitude Heading Altitude Ground
Speed
29-Aug-18 18:17 42.375487 -122.877975 114 1307ft 0kts
29-Aug-18 18:18 42.375487 -122.877975 114 1307ft 0kts
29-Aug-18 18:19 42.375487 -122.877975 114 1307ft 0kts
29-Aug-18 18:20 42.375487 -122.877975 114 1307ft 0kts
29-Aug-18 18:21 42.375487 -122.877975 114 1307ft 0kts
29-Aug-18 18:22 42.375487 -122.877975 114 1307ft 0kts
29-Aug-18 18:23 42.375487 -122.877975 114 1307ft 0kts
29-Aug-18 18:24 42.375487 -122.877975 114 1307ft 0kts
29-Aug-18 18:25 42.375487 -122.877975 114 1307ft 0kts
29-Aug-18 18:26 42.375487 -122.877975 114 1307ft 0kts
29-Aug-18 18:27 42.375487 -122.877975 114 1307ft 0kts
29-Aug-18 18:28 42.375487 -122.877975 114 1307ft 0kts
29-Aug-18 18:29 42.375487 -122.877975 114 1307ft 0kts
29-Aug-18 18:30 42.375487 -122.877975 114 1307ft 0kts
29-Aug-18 18:31 42.376433 -122.875751 128 1307ft 14kts
29-Aug-18 18:32 42.371467 -122.873031 160 1313ft 23kts
29-Aug-18 18:33 42.365479 -122.869876 161 1323ft 20kts
29-Aug-18 18:34 42.364077 -122.869554 144 1324ft 0kts
29-Aug-18 18:35 42.363683 -122.868756 111 1325ft 7kts
29-Aug-18 18:36 42.364268 -122.867694 337 1327ft 0kts
29-Aug-18 18:37 42.376262 -122.873282 334 1808ft 67kts
29-Aug-18 18:38 42.395868 -122.861106 22 2689ft 83kts
29-Aug-18 18:39 42.416030 -122.845793 22 3547ft 85kts
29-Aug-18 18:40 42.436608 -122.829957 22 4369ft 86kts
29-Aug-18 18:41 42.458100 -122.815758 354 5173ft 85kts
29-Aug-18 18:42 42.477533 -122.828563 323 6012ft 76kts
29-Aug-18 18:43 42.496817 -122.842663 323 6760ft 82kts
29-Aug-18 18:44 42.516412 -122.857898 324 7503ft 83kts
29-Aug-18 18:45 42.537530 -122.873306 326 7994ft 103kts
29-Aug-18 18:46 42.565102 -122.892566 326 8069ft 114kts
29-Aug-18 18:47 42.593545 -122.912921 326 8031ft 116kts
29-Aug-18 18:48 42.621785 -122.933663 322 7978ft 115kts
29-Aug-18 18:49 42.649770 -122.955519 326 7958ft 115kts
29-Aug-18 18:50 42.677651 -122.975857 325 7982ft 113kts
29-Aug-18 18:51 42.705448 -122.996979 325 8018ft 115kts
29-Aug-18 18:52 42.733785 -123.017577 326 8073ft 116kts
29-Aug-18 18:53 42.762256 -123.039470 326 8068ft 120kts
29-Aug-18 18:54 42.791767 -123.062042 326 7981ft 121kts
29-Aug-18 18:55 42.821217 -123.083176 327 7989ft 118kts
29-Aug-18 18:56 42.845397 -123.100799 327 7996ft 118kts
29-Aug-18 18:57 42.878910 -123.125565 327 8006ft 117kts
29-Aug-18 18:58 42.902936 -123.143383 327 8006ft 117kts
29-Aug-18 18:59 42.936082 -123.168070 326 8007ft 116kts
29-Aug-18 19:00 42.959661 -123.185656 326 8007ft 115kts
29-Aug-18 19:01 42.992198 -123.209948 327 8007ft 113kts
29-Aug-18 19:02 43.015168 -123.227109 327 8006ft 112kts
29-Aug-18 19:03 43.042475 -123.247526 327 8006ft 111kts
29-Aug-18 19:04 43.069506 -123.267768 327 8006ft 111kts
29-Aug-18 19:05 43.096490 -123.287982 327 8006ft 111kts
29-Aug-18 19:06 43.123523 -123.308252 327 8007ft 111kts
29-Aug-18 19:07 43.150678 -123.328635 327 8007ft 111kts
29-Aug-18 19:08 43.177772 -123.349078 323 8006ft 111kts
29-Aug-18 19:09 43.190698 -123.385959 290 8007ft 108kts
29-Aug-18 19:10 43.201379 -123.424648 290 8006ft 108kts
29-Aug-18 19:11 43.211782 -123.463334 290 8006ft 107kts
29-Aug-18 19:12 43.222041 -123.501834 289 8006ft 107kts
29-Aug-18 19:13 43.232249 -123.540301 289 8006ft 107kts
29-Aug-18 19:14 43.242415 -123.578670 289 8006ft 107kts
29-Aug-18 19:15 43.252599 -123.617146 289 8012ft 106kts
29-Aug-18 19:16 43.262726 -123.655305 288 8034ft 106kts
29-Aug-18 19:17 43.272777 -123.693395 288 8055ft 107kts
29-Aug-18 19:18 43.282974 -123.732172 288 8075ft 107kts
29-Aug-18 19:19 43.293140 -123.770888 287 8096ft 108kts
29-Aug-18 19:20 43.303373 -123.809923 287 8117ft 108kts
29-Aug-18 19:21 43.313600 -123.848982 287 8135ft 109kts
29-Aug-18 19:22 43.323852 -123.888209 287 8135ft 109kts
29-Aug-18 19:23 43.334176 -123.927783 287 8135ft 110kts
29-Aug-18 19:24 43.344479 -123.967351 287 8134ft 109kts
29-Aug-18 19:25 43.354709 -124.006682 287 8133ft 110kts
29-Aug-18 19:26 43.367168 -124.045119 295 8131ft 110kts
29-Aug-18 19:27 43.381789 -124.080327 300 7810ft 102kts
29-Aug-18 19:28 43.395253 -124.114988 296 6851ft 105kts
29-Aug-18 19:29 43.408640 -124.149148 296 5550ft 96kts
29-Aug-18 19:30 43.413015 -124.182545 257 5164ft 103kts
29-Aug-18 19:31 43.407765 -124.219675 262 4218ft 98kts
29-Aug-18 19:32 43.403456 -124.256196 257 3367ft 97kts
29-Aug-18 19:33 43.396129 -124.291692 259 3207ft 98kts
29-Aug-18 19:34 43.386693 -124.326700 246 2951ft 100kts
29-Aug-18 19:35 43.374096 -124.359218 242 2464ft 97kts
29-Aug-18 19:36 43.360051 -124.390106 208 2122ft 97kts
29-Aug-18 19:37 43.334042 -124.400529 195 2200ft 106kts
29-Aug-18 19:38 43.320411 -124.426179 318 2159ft 107kts
29-Aug-18 19:39 43.344660 -124.421427 24 1638ft 108kts
29-Aug-18 19:40 43.361385 -124.389748 61 1464ft 110kts
29-Aug-18 19:41 43.376257 -124.353900 63 1465ft 108kts
29-Aug-18 19:42 43.390410 -124.319473 57 1003ft 97kts
29-Aug-18 19:43 43.403623 -124.287392 57 494ft 96kts
29-Aug-18 19:44 43.416600 -124.255995 58 18ft 82kts
29-Aug-18 19:45 43.419308 -124.247257 150 16ft 0kts
29-Aug-18 19:46 43.417597 -124.247085 236 23ft 4kts
29-Aug-18 19:47 43.417433 -124.247122 58 24ft 0kts

Navigation Log

Ident Type
Flight plan parsing failed, navigation log unavailable